Time;durP1;ratioP1;P1;durP2;ratioP2;P2;SDS_P1;SDS_P2;PMS_P1;PMS_P2;Temp;Humidity;BMP_temperature;BMP_pressure;BME280_temperature;BME280_humidity;BME280_pressure;Samples;Min_cycle;Max_cycle;Signal;HPM_P1;HPM_P2
2022/10/13 00:00:41;;;;;;;1.20;0.55;;;;;;;16.96;46.68;99593.47;5056958;28;20154;-78
2022/10/13 00:03:07;;;;;;;2.03;0.43;;;;;;;16.97;46.71;99606.50;5056983;28;20036;-78
2022/10/13 00:05:32;;;;;;;1.20;0.40;;;;;;;16.85;46.93;99590.91;5040529;28;20522;-78
2022/10/13 00:07:58;;;;;;;2.50;0.50;;;;;;;16.97;47.00;99606.50;5056608;28;20115;-79
2022/10/13 00:10:24;;;;;;;0.52;0.28;;;;;;;16.94;46.85;99608.59;5056859;28;20549;-79
2022/10/13 00:12:49;;;;;;;1.23;0.47;;;;;;;16.93;46.87;99610.38;5056516;28;20035;-79
2022/10/13 00:15:15;;;;;;;0.93;0.40;;;;;;;16.90;47.01;99596.63;5073980;28;20098;-79
2022/10/13 00:17:40;;;;;;;1.38;0.35;;;;;;;16.94;46.97;99613.88;5056200;28;20032;-78
2022/10/13 00:20:07;;;;;;;0.60;0.20;;;;;;;16.95;47.00;99610.25;5057522;28;20032;-78
2022/10/13 00:22:32;;;;;;;1.63;0.50;;;;;;;16.95;46.95;99611.09;5056900;28;20404;-78
2022/10/13 00:24:57;;;;;;;1.92;0.40;;;;;;;16.91;47.01;99598.31;5072852;28;20048;-79
2022/10/13 00:27:23;;;;;;;2.53;0.45;;;;;;;16.92;46.83;99595.53;5073301;28;20059;-79
2022/10/13 00:29:49;;;;;;;0.40;0.28;;;;;;;16.92;46.96;99594.69;5056706;28;20071;-79
2022/10/13 00:32:14;;;;;;;0.68;0.30;;;;;;;16.91;47.08;99590.41;5056177;28;20028;-78
2022/10/13 00:34:40;;;;;;;1.60;0.40;;;;;;;16.93;46.87;99591.09;5057315;28;20085;-81
2022/10/13 00:37:05;;;;;;;3.60;0.50;;;;;;;16.92;46.72;99592.91;5056549;28;20052;-78
2022/10/13 00:39:31;;;;;;;1.77;0.50;;;;;;;16.94;46.75;99592.78;5073225;28;20491;-78
2022/10/13 00:41:57;;;;;;;1.88;0.40;;;;;;;16.93;46.88;99593.72;5039991;28;20530;-79
2022/10/13 00:44:58;;;;;;;1.95;0.40;;;;;;;16.94;46.83;99592.78;5072991;28;20032;-78
2022/10/13 00:47:25;;;;;;;0.65;0.30;;;;;;;16.91;46.78;99588.59;5072912;28;20488;-79
2022/10/13 00:49:51;;;;;;;1.58;0.43;;;;;;;16.91;46.83;99590.41;5038648;28;20492;-78
2022/10/13 00:52:16;;;;;;;2.45;0.40;;;;;;;16.89;46.94;99593.19;5056493;28;20046;-77
2022/10/13 00:54:42;;;;;;;4.13;0.40;;;;;;;16.84;46.96;99587.47;5040092;28;20048;-77
2022/10/13 00:57:08;;;;;;;1.95;0.30;;;;;;;16.83;46.90;99583.97;5056031;28;20161;-78
2022/10/13 00:59:33;;;;;;;3.92;1.48;;;;;;;16.81;46.83;99578.00;5056484;28;20028;-79
2022/10/13 01:01:59;;;;;;;2.05;0.30;;;;;;;16.80;46.87;99575.50;5056270;28;20409;-78
2022/10/13 01:04:26;;;;;;;1.23;0.50;;;;;;;16.83;46.94;99585.78;5056404;28;20028;-80
2022/10/13 01:06:53;;;;;;;1.33;0.40;;;;;;;16.83;46.81;99580.50;5039786;28;20420;-80
2022/10/13 01:09:18;;;;;;;1.38;0.32;;;;;;;16.80;47.06;99576.31;5056071;28;20032;-80
2022/10/13 01:12:01;;;;;;;0.40;0.30;;;;;;;16.84;46.91;99590.09;5073898;28;20093;-80
2022/10/13 01:14:38;;;;;;;0.65;0.30;;;;;;;16.81;46.92;99587.72;5072599;28;20474;-81
2022/10/13 01:17:25;;;;;;;0.90;0.40;;;;;;;16.80;47.17;99584.25;5072781;28;20123;-81
2022/10/13 01:20:22;;;;;;;1.80;0.52;;;;;;;16.80;47.11;99586.06;5072734;28;20082;-81
2022/10/13 01:23:05;;;;;;;2.53;0.38;;;;;;;16.76;47.06;99579.38;5073798;28;20020;-81
2022/10/13 01:26:00;;;;;;;0.60;0.30;;;;;;;16.78;47.10;99582.72;5040397;28;20056;-81
2022/10/13 01:28:54;;;;;;;0.93;0.30;;;;;;;16.79;47.32;99584.38;5072327;28;20123;-81
2022/10/13 01:31:27;;;;;;;0.52;0.28;;;;;;;16.77;47.36;99581.88;5051131;28;20503;-81
2022/10/13 01:34:09;;;;;;;3.70;0.35;;;;;;;16.76;47.13;99582.00;5051228;28;20499;-82
2022/10/13 01:36:46;;;;;;;1.40;0.40;;;;;;;16.75;47.35;99578.53;5013816;28;20043;-82
2022/10/13 01:39:25;;;;;;;0.75;0.30;;;;;;;16.74;47.57;99582.13;5031527;28;20124;-72
2022/10/13 01:41:52;;;;;;;1.23;0.40;;;;;;;16.73;47.39;99585.78;5016299;28;20041;-70
2022/10/13 01:44:24;;;;;;;1.27;0.40;;;;;;;16.73;47.60;99579.63;4998292;28;20033;-69
2022/10/13 01:46:50;;;;;;;0.63;0.30;;;;;;;16.71;47.75;99574.50;5008176;28;20100;-70
2022/10/13 01:49:16;;;;;;;0.82;0.40;;;;;;;16.71;47.90;99565.78;5017579;28;20060;-70
2022/10/13 01:51:42;;;;;;;0.80;0.43;;;;;;;16.70;47.79;99566.72;5034336;28;20457;-70
2022/10/13 01:54:07;;;;;;;1.45;0.25;;;;;;;16.68;47.61;99558.94;5017347;28;20041;-70
2022/10/13 01:56:33;;;;;;;1.88;0.40;;;;;;;16.63;47.82;99564.66;5017786;28;20040;-68
2022/10/13 01:59:00;;;;;;;1.45;0.40;;;;;;;16.66;47.75;99563.53;5033830;28;20033;-68
2022/10/13 02:01:37;;;;;;;0.98;0.25;;;;;;;16.64;47.92;99561.03;5033785;28;20064;-68
2022/10/13 02:04:21;;;;;;;0.85;0.30;;;;;;;16.62;47.81;99560.34;5050518;28;20060;-68
2022/10/13 02:06:52;;;;;;;2.47;0.30;;;;;;;16.61;47.94;99557.84;5050892;28;20039;-68
2022/10/13 02:09:34;;;;;;;2.45;0.52;;;;;;;16.58;48.03;99560.75;5035558;28;20036;-68
2022/10/13 02:12:06;;;;;;;0.95;0.30;;;;;;;16.57;48.11;99557.28;5054774;28;20028;-69
2022/10/13 02:14:32;;;;;;;2.03;0.40;;;;;;;16.53;48.34;99558.53;5054915;28;20036;-68
2022/10/13 02:17:00;;;;;;;1.60;0.30;;;;;;;16.51;48.12;99552.56;5054468;28;20028;-68
2022/10/13 02:19:25;;;;;;;1.73;0.50;;;;;;;16.46;48.24;99541.56;5038396;28;20031;-68
2022/10/13 02:21:51;;;;;;;1.98;0.30;;;;;;;16.47;48.42;99551.16;5054091;28;20396;-68
2022/10/13 02:24:16;;;;;;;0.73;0.20;;;;;;;16.46;48.43;99549.47;5054713;28;20024;-68
2022/10/13 02:26:42;;;;;;;4.18;0.50;;;;;;;16.43;48.38;99547.09;5054384;28;20467;-69
2022/10/13 02:29:12;;;;;;;0.50;0.32;;;;;;;16.43;48.62;99552.38;5054179;28;20130;-68
2022/10/13 02:31:38;;;;;;;0.88;0.30;;;;;;;16.41;48.76;99547.28;5038176;28;20029;-68
2022/10/13 02:34:04;;;;;;;0.63;0.43;;;;;;;16.36;48.55;99543.38;5047149;28;20036;-68
2022/10/13 02:36:29;;;;;;;2.30;0.35;;;;;;;16.38;48.66;99549.31;5042171;28;20095;-69
2022/10/13 02:38:55;;;;;;;1.38;0.50;;;;;;;16.36;48.50;99551.25;5060343;28;20086;-68
2022/10/13 02:41:20;;;;;;;1.38;0.40;;;;;;;16.33;48.62;99552.34;5058903;28;20033;-68
2022/10/13 02:43:46;;;;;;;2.28;0.40;;;;;;;16.25;48.68;99545.13;5037077;28;20037;-68
2022/10/13 02:46:11;;;;;;;0.93;0.40;;;;;;;16.28;48.77;99549.31;5054107;28;20024;-68
2022/10/13 02:48:37;;;;;;;0.70;0.20;;;;;;;16.22;48.73;99534.03;5054146;28;20032;-68
2022/10/13 02:51:03;;;;;;;0.98;0.40;;;;;;;16.24;48.87;99542.63;5037265;28;20024;-69
2022/10/13 02:53:28;;;;;;;2.88;0.50;;;;;;;16.18;48.74;99532.66;5053375;28;20032;-68
2022/10/13 02:55:53;;;;;;;1.48;0.43;;;;;;;16.19;48.81;99535.16;5054187;28;20039;-69
2022/10/13 02:58:19;;;;;;;2.92;0.50;;;;;;;16.13;48.93;99535.69;5037061;28;20028;-69
2022/10/13 03:00:44;;;;;;;2.80;0.60;;;;;;;16.15;48.92;99539.00;5054235;28;20100;-70
2022/10/13 03:03:10;;;;;;;3.08;0.57;;;;;;;16.14;48.94;99531.22;5053940;28;20439;-70
2022/10/13 03:05:35;;;;;;;1.95;0.55;;;;;;;16.12;48.96;99536.63;5070887;28;20103;-70
2022/10/13 03:08:01;;;;;;;1.60;0.32;;;;;;;16.11;49.11;99532.31;5054227;28;20047;-69
2022/10/13 03:10:27;;;;;;;2.13;0.50;;;;;;;16.06;49.02;99524.00;5071793;28;20040;-69
2022/10/13 03:12:53;;;;;;;1.33;0.55;;;;;;;16.07;49.05;99533.56;5054935;28;20488;-69
2022/10/13 03:15:19;;;;;;;4.15;0.70;;;;;;;16.05;49.08;99525.81;5057954;28;20059;-69
2022/10/13 03:17:44;;;;;;;1.33;0.50;;;;;;;16.04;49.12;99525.94;5070624;28;20033;-69
2022/10/13 03:20:10;;;;;;;0.60;0.30;;;;;;;16.02;49.05;99530.47;5022011;28;20072;-69
2022/10/13 03:22:35;;;;;;;1.52;0.50;;;;;;;15.96;49.13;99533.66;5054444;28;20503;-68
2022/10/13 03:25:02;;;;;;;1.75;0.32;;;;;;;15.97;49.23;99536.16;5054542;28;20028;-68
2022/10/13 03:27:28;;;;;;;0.75;0.40;;;;;;;15.93;49.39;99528.66;5037945;28;20037;-68
2022/10/13 03:29:53;;;;;;;1.67;0.40;;;;;;;15.94;49.31;99530.31;5021224;28;20495;-68
2022/10/13 03:32:18;;;;;;;2.08;0.60;;;;;;;15.86;49.26;99529.19;5037498;28;20053;-68
2022/10/13 03:34:44;;;;;;;1.55;0.47;;;;;;;15.88;49.44;99537.78;5021872;28;20040;-69
2022/10/13 03:37:10;;;;;;;0.82;0.43;;;;;;;15.84;49.35;99527.63;5037545;28;20033;-69
2022/10/13 03:39:35;;;;;;;2.33;0.60;;;;;;;15.85;49.40;99531.94;5021305;28;20041;-70
2022/10/13 03:42:01;;;;;;;4.45;0.60;;;;;;;15.83;49.31;99532.09;5020869;28;20036;-70
2022/10/13 03:44:26;;;;;;;2.78;0.70;;;;;;;15.81;49.48;99535.78;5037527;28;20025;-69
2022/10/13 03:46:52;;;;;;;2.25;0.55;;;;;;;15.76;49.49;99530.06;5037558;28;20516;-72
2022/10/13 03:49:17;;;;;;;2.50;0.63;;;;;;;15.75;49.50;99526.63;5037254;28;20516;-71
2022/10/13 03:51:43;;;;;;;0.75;0.40;;;;;;;15.76;49.58;99530.88;5054139;28;20041;-70
2022/10/13 03:54:12;;;;;;;3.35;0.52;;;;;;;15.76;49.49;99527.44;5061043;28;20463;-70
2022/10/13 03:56:37;;;;;;;;;;;;;;;15.75;49.46;99526.63;5057878;28;20066;-70
2022/10/13 03:59:03;;;;;;;3.38;0.60;;;;;;;15.69;49.43;99527.13;5057309;28;19912;-71
2022/10/13 04:01:29;;;;;;;1.30;0.80;;;;;;;15.68;49.42;99517.56;5057596;28;20033;-71
2022/10/13 04:03:55;;;;;;;4.40;0.50;;;;;;;15.64;49.60;99514.38;5057076;28;20034;-70
2022/10/13 04:06:21;;;;;;;1.90;0.63;;;;;;;15.67;49.53;99522.00;5040639;28;20492;-71
2022/10/13 04:08:47;;;;;;;3.50;0.65;;;;;;;15.66;49.56;99520.31;5057223;28;20115;-71
2022/10/13 04:11:13;;;;;;;5.30;0.80;;;;;;;15.65;49.50;99521.28;5056943;28;20020;-71
2022/10/13 04:13:39;;;;;;;2.05;0.55;;;;;;;15.68;49.60;99525.44;5057335;28;20029;-71
2022/10/13 04:16:06;;;;;;;2.20;0.60;;;;;;;15.69;49.45;99524.50;5040330;28;20035;-72
2022/10/13 04:18:32;;;;;;;2.63;0.70;;;;;;;15.71;49.50;99519.94;5056956;28;20040;-70
2022/10/13 04:20:57;;;;;;;1.90;0.73;;;;;;;15.68;49.61;99512.28;5040530;28;20036;-73
2022/10/13 04:23:23;;;;;;;2.45;0.80;;;;;;;15.73;49.59;99512.72;5040193;28;20028;-70
2022/10/13 04:25:48;;;;;;;1.30;0.65;;;;;;;15.73;49.63;99520.63;5057148;28;20040;-70
2022/10/13 04:28:14;;;;;;;5.32;0.82;;;;;;;15.69;49.71;99512.16;5056619;28;20519;-71
2022/10/13 04:30:39;;;;;;;1.35;0.77;;;;;;;15.74;49.62;99506.50;5039569;28;20039;-70
2022/10/13 04:33:05;;;;;;;5.32;0.68;;;;;;;15.92;49.33;99517.28;5056803;28;20059;-72
2022/10/13 04:35:30;;;;;;;1.33;0.40;;;;;;;16.04;49.13;99512.75;5056726;28;20024;-71
2022/10/13 04:37:56;;;;;;;1.65;0.82;;;;;;;16.10;48.97;99514.88;5072995;28;20442;-70
2022/10/13 04:40:22;;;;;;;0.98;0.50;;;;;;;16.08;48.97;99507.09;5073045;28;20143;-71
2022/10/13 04:42:48;;;;;;;3.78;0.70;;;;;;;16.16;48.62;99510.84;5056122;28;20527;-72
2022/10/13 04:45:13;;;;;;;0.85;0.52;;;;;;;16.25;48.58;99515.31;5073341;28;20059;-71
2022/10/13 04:47:39;;;;;;;5.00;0.70;;;;;;;16.33;48.22;99502.31;5056329;28;20039;-74
2022/10/13 04:50:05;;;;;;;5.55;0.73;;;;;;;16.55;47.94;99513.59;5056438;28;20029;-71
2022/10/13 04:52:31;;;;;;;2.13;0.70;;;;;;;16.66;47.69;99517.91;5055816;28;20127;-71
2022/10/13 04:54:56;;;;;;;2.10;0.55;;;;;;;16.76;47.32;99510.81;5073750;28;20048;-70
2022/10/13 04:57:22;;;;;;;2.97;0.65;;;;;;;16.94;47.02;99511.03;5056188;28;20522;-71
2022/10/13 04:59:47;;;;;;;4.95;0.70;;;;;;;17.07;46.75;99513.38;5055687;28;20028;-71
2022/10/13 05:02:13;;;;;;;1.30;0.77;;;;;;;17.20;46.53;99513.91;5056038;28;20044;-71
2022/10/13 05:04:38;;;;;;;2.17;0.80;;;;;;;17.48;46.08;99514.00;5072783;28;20072;-70
2022/10/13 05:07:04;;;;;;;6.75;0.90;;;;;;;17.66;45.51;99507.03;5040760;28;20118;-72
2022/10/13 05:09:29;;;;;;;2.95;0.70;;;;;;;17.95;45.25;99521.09;5019332;28;20021;-70
2022/10/13 05:11:56;;;;;;;3.85;0.80;;;;;;;18.13;44.70;99508.78;5052246;28;20051;-72
2022/10/13 05:14:21;;;;;;;4.82;0.70;;;;;;;18.37;44.18;99518.81;5036103;28;20021;-71
2022/10/13 05:16:47;;;;;;;4.55;0.80;;;;;;;18.55;44.12;99521.50;5019374;28;20519;-71
2022/10/13 05:19:13;;;;;;;2.97;1.02;;;;;;;18.73;43.37;99510.09;5053372;28;20060;-71
2022/10/13 05:21:38;;;;;;;1.65;0.80;;;;;;;19.13;42.80;99522.91;5035725;28;20041;-72
2022/10/13 05:24:05;;;;;;;4.82;1.00;;;;;;;19.38;42.42;99522.25;5035873;28;20041;-73
2022/10/13 05:26:32;;;;;;;1.65;0.80;;;;;;;19.80;41.42;99516.25;5019524;28;20043;-72
2022/10/13 05:28:58;;;;;;;3.28;0.98;;;;;;;20.18;40.79;99519.41;5052384;28;20082;-71
2022/10/13 05:31:24;;;;;;;3.28;1.25;;;;;;;20.41;40.41;99525.78;5018908;28;20025;-72
2022/10/13 05:33:50;;;;;;;11.57;1.38;;;;;;;20.68;39.87;99528.34;5034369;28;20049;-73
2022/10/13 05:36:20;;;;;;;2.55;0.93;;;;;;;21.02;39.12;99535.38;5059506;28;20063;-74
2022/10/13 05:38:52;;;;;;;8.77;1.40;;;;;;;21.32;38.84;99536.53;5038691;28;20724;-70
2022/10/13 05:41:18;;;;;;;2.90;0.63;;;;;;;21.89;46.14;99543.59;5055206;28;20032;-77
2022/10/13 05:43:43;;;;;;;9.50;1.30;;;;;;;22.56;45.32;99539.69;5052594;28;20405;-81
2022/10/13 05:46:09;;;;;;;14.00;1.33;;;;;;;23.13;42.12;99538.47;5025895;28;20432;-77
2022/10/13 05:48:35;;;;;;;7.35;1.33;;;;;;;23.51;40.67;99541.13;5059885;28;20037;-83
2022/10/13 05:51:04;;;;;;;7.82;1.10;;;;;;;23.55;35.34;99542.44;5045581;28;20484;-79
2022/10/13 05:53:30;;;;;;;;;;;;;;;23.48;35.03;99546.81;5043220;28;20035;-68
2022/10/13 05:55:57;;;;;;;11.50;5.03;;;;;;;23.44;35.69;99540.22;5060422;28;20020;-70
2022/10/13 05:58:23;;;;;;;11.52;4.72;;;;;;;23.63;34.52;99547.69;5043618;28;20044;-74
2022/10/13 06:00:48;;;;;;;10.60;5.85;;;;;;;23.59;34.73;99550.91;5044520;28;20393;-70
2022/10/13 06:03:19;;;;;;;7.63;4.13;;;;;;;23.42;34.15;99545.72;5042284;28;20032;-69
2022/10/13 06:05:48;;;;;;;5.93;3.20;;;;;;;23.38;34.01;99549.75;5059876;28;20035;-69
2022/10/13 06:08:13;;;;;;;;;;;;;;;23.41;34.27;99559.22;5045071;28;20480;-67
2022/10/13 06:10:40;;;;;;;8.88;2.70;;;;;;;23.18;34.32;99560.06;5059371;28;19920;-71
2022/10/13 06:13:05;;;;;;;7.90;2.75;;;;;;;22.92;34.63;99545.25;5026509;28;20111;-68
2022/10/13 06:15:31;;;;;;;11.13;7.80;;;;;;;22.86;34.29;99559.28;5043980;28;20028;-70
2022/10/13 06:17:57;;;;;;;19.92;12.50;;;;;;;22.74;34.94;99561.53;5058760;28;20028;-71
2022/10/13 06:20:23;;;;;;;12.70;9.00;;;;;;;22.66;35.35;99553.59;5043079;28;20078;-70
2022/10/13 06:22:49;;;;;;;24.73;11.23;;;;;;;22.65;37.90;99561.75;5044169;28;20033;-70
2022/10/13 06:25:15;;;;;;;18.55;11.52;;;;;;;22.75;36.02;99563.16;5058645;28;20025;-69
2022/10/13 06:27:40;;;;;;;23.33;12.70;;;;;;;22.91;35.82;99567.59;5043587;28;20025;-69
2022/10/13 06:30:07;;;;;;;16.38;10.95;;;;;;;23.25;35.01;99560.19;5043046;28;20032;-68
2022/10/13 06:32:32;;;;;;;13.93;8.40;;;;;;;23.59;34.07;99564.22;5041263;28;20124;-69
2022/10/13 06:34:58;;;;;;;10.88;7.60;;;;;;;23.80;33.54;99555.53;5060214;28;20170;-69
2022/10/13 06:37:23;;;;;;;14.25;8.82;;;;;;;24.19;32.99;99557.94;5026196;28;20094;-71
2022/10/13 06:39:49;;;;;;;10.30;7.93;;;;;;;24.49;32.42;99563.22;5025719;28;20044;-70
2022/10/13 06:42:15;;;;;;;11.63;6.43;;;;;;;24.85;31.69;99566.94;5043901;28;20028;-70
2022/10/13 06:44:41;;;;;;;10.48;5.43;;;;;;;25.00;31.30;99561.53;5025842;28;20468;-74
2022/10/13 06:47:06;;;;;;;8.57;4.65;;;;;;;25.35;32.67;99561.66;5041705;28;20086;-69
2022/10/13 06:49:32;;;;;;;11.02;3.78;;;;;;;25.45;32.09;99565.66;5043354;28;20055;-70
2022/10/13 06:51:58;;;;;;;13.02;3.35;;;;;;;25.53;33.69;99562.00;5062668;28;20028;-78
2022/10/13 06:54:23;;;;;;;8.82;3.88;;;;;;;25.74;33.10;99563.78;5028838;28;20125;-76
2022/10/13 06:56:50;;;;;;;10.07;7.63;;;;;;;25.92;30.55;99560.63;5042703;28;20131;-77
2022/10/13 06:59:15;;;;;;;9.15;4.00;;;;;;;26.19;29.99;99566.16;5027386;28;20404;-77
2022/10/13 07:01:41;;;;;;;5.55;3.97;;;;;;;26.38;29.66;99567.28;5025783;28;20032;-75
2022/10/13 07:04:06;;;;;;;9.65;4.25;;;;;;;26.47;29.32;99563.41;5042509;28;20037;-77
2022/10/13 07:06:32;;;;;;;9.05;3.80;;;;;;;26.71;28.93;99566.59;5024279;28;20121;-77
2022/10/13 07:08:57;;;;;;;7.53;2.78;;;;;;;26.90;28.12;99559.63;5040776;28;20052;-76
2022/10/13 07:11:23;;;;;;;11.90;2.72;;;;;;;27.15;28.50;99559.00;5059609;28;20041;-74
2022/10/13 07:13:48;;;;;;;8.77;2.55;;;;;;;27.29;28.26;99563.34;5040824;28;20044;-77
2022/10/13 07:16:14;;;;;;;11.88;2.30;;;;;;;27.42;27.63;99566.06;5025851;28;20037;-77
2022/10/13 07:18:39;;;;;;;8.82;2.50;;;;;;;27.61;27.01;99559.03;5054457;28;20044;-80
2022/10/13 07:21:05;;;;;;;10.27;2.13;;;;;;;27.77;26.86;99565.81;5041324;28;20059;-76
2022/10/13 07:23:31;;;;;;;10.82;2.03;;;;;;;27.87;26.96;99549.28;5058515;28;20076;-79
2022/10/13 07:25:56;;;;;;;12.60;1.77;;;;;;;27.70;26.24;99553.47;5041307;28;20102;-79
2022/10/13 07:28:23;;;;;;;6.13;1.85;;;;;;;27.33;26.34;99547.72;5050789;28;20068;-80
2022/10/13 07:30:48;;;;;;;7.68;1.67;;;;;;;27.15;27.28;99546.47;5091098;28;20036;-79
2022/10/13 07:33:14;;;;;;;7.28;1.85;;;;;;;27.15;26.67;99546.47;5073984;28;20476;-81
2022/10/13 07:35:41;;;;;;;7.05;1.75;;;;;;;27.13;27.21;99545.81;5084618;28;20423;-80
2022/10/13 07:38:07;;;;;;;7.00;1.67;;;;;;;27.27;26.57;99541.28;5054881;28;20411;-81
2022/10/13 07:40:32;;;;;;;6.05;1.70;;;;;;;27.01;27.07;99536.75;5036934;28;20048;-81
2022/10/13 07:42:58;;;;;;;6.18;1.98;;;;;;;27.09;26.80;99528.53;5072989;28;20040;-80
2022/10/13 07:45:24;;;;;;;4.40;1.60;;;;;;;27.42;26.85;99533.91;5039917;28;20114;-84
2022/10/13 07:47:49;;;;;;;5.53;1.75;;;;;;;26.99;26.16;99530.75;5053604;28;20033;-80
2022/10/13 07:50:15;;;;;;;6.70;1.50;;;;;;;26.90;26.84;99527.47;5037303;28;20408;-82
2022/10/13 07:52:40;;;;;;;7.30;1.60;;;;;;;27.22;26.17;99515.13;5053589;28;20045;-80
2022/10/13 07:55:06;;;;;;;6.25;1.50;;;;;;;27.20;26.35;99519.84;5036027;28;20136;-80
2022/10/13 07:57:32;;;;;;;5.30;1.52;;;;;;;27.30;26.45;99511.41;5046539;28;20085;-81
2022/10/13 07:59:57;;;;;;;4.28;1.40;;;;;;;27.66;26.13;99520.88;5058518;28;20032;-79
2022/10/13 08:02:23;;;;;;;8.80;1.60;;;;;;;27.31;26.12;99518.44;5059205;28;20036;-80
2022/10/13 08:04:48;;;;;;;8.15;1.60;;;;;;;27.21;26.22;99523.34;5059887;28;20035;-79
2022/10/13 08:07:15;;;;;;;4.32;1.60;;;;;;;27.23;25.89;99518.59;5076516;28;20553;-80
2022/10/13 08:09:41;;;;;;;7.05;1.65;;;;;;;27.51;25.77;99518.41;5075917;28;20043;-78
2022/10/13 08:12:06;;;;;;;9.43;1.50;;;;;;;27.55;25.70;99519.66;5071545;28;20419;-80
2022/10/13 08:14:32;;;;;;;10.02;1.70;;;;;;;27.52;25.62;99517.38;5036284;28;20044;-79
2022/10/13 08:16:58;;;;;;;4.22;1.48;;;;;;;27.62;25.82;99509.72;5053256;28;20491;-80
2022/10/13 08:19:25;;;;;;;9.63;1.83;;;;;;;27.34;25.64;99503.78;5036160;28;20116;-75
2022/10/13 08:21:51;;;;;;;9.65;1.60;;;;;;;26.98;26.24;99505.84;5035907;28;20118;-72
2022/10/13 08:24:16;;;;;;;6.00;1.88;;;;;;;26.82;26.52;99507.06;5035368;28;20507;-75
2022/10/13 08:26:42;;;;;;;12.77;2.03;;;;;;;26.36;26.56;99507.75;5042635;28;20028;-73
2022/10/13 08:29:08;;;;;;;7.55;1.90;;;;;;;25.97;27.19;99506.56;5058979;28;20042;-75
2022/10/13 08:31:34;;;;;;;3.97;1.52;;;;;;;25.94;27.86;99510.44;5058830;28;20032;-74
2022/10/13 08:34:00;;;;;;;8.70;2.00;;;;;;;25.81;27.98;99499.69;5093512;28;20059;-73
2022/10/13 08:36:25;;;;;;;9.68;1.77;;;;;;;25.82;27.77;99503.97;5075483;28;20085;-73
2022/10/13 08:38:52;;;;;;;8.63;2.00;;;;;;;25.80;27.57;99509.53;5055374;28;20037;-74
2022/10/13 08:41:20;;;;;;;12.98;2.40;;;;;;;25.62;28.32;99511.91;5070650;28;20486;-75
2022/10/13 08:43:51;;;;;;;16.67;2.17;;;;;;;25.74;28.15;99501.47;5055764;28;20456;-74
2022/10/13 08:46:27;;;;;;;6.05;2.22;;;;;;;25.76;28.34;99492.25;5038063;28;20043;-75
2022/10/13 08:48:54;;;;;;;7.80;2.45;;;;;;;25.87;28.09;99509.59;5055225;28;20162;-74
2022/10/13 08:51:20;;;;;;;5.57;2.13;;;;;;;26.24;28.12;99493.31;5038820;28;20040;-74
2022/10/13 08:53:45;;;;;;;11.75;2.35;;;;;;;26.71;27.90;99491.59;5054010;28;20056;-74
2022/10/13 08:56:17;;;;;;;8.90;2.17;;;;;;;27.01;26.43;99484.00;5055515;28;20483;-73
2022/10/13 08:58:43;;;;;;;11.68;2.10;;;;;;;27.27;25.68;99496.53;5034608;28;20041;-77
2022/10/13 09:01:17;;;;;;;9.98;2.05;;;;;;;27.75;24.67;99494.63;5052150;28;20032;-77
2022/10/13 09:04:01;;;;;;;9.43;2.40;;;;;;;27.47;25.13;99502.94;5034456;28;20045;-73
2022/10/13 09:06:30;;;;;;;12.38;1.98;;;;;;;27.64;24.74;99497.97;5054035;28;20037;-76
2022/10/13 09:08:59;;;;;;;9.10;1.95;;;;;;;27.80;25.42;99497.53;5038211;28;20040;-75
2022/10/13 09:11:29;;;;;;;8.05;1.90;;;;;;;28.14;24.82;99495.56;5070618;28;20025;-73
2022/10/13 09:13:56;;;;;;;9.10;1.70;;;;;;;28.13;24.62;99492.06;5055013;28;20052;-74
2022/10/13 09:16:30;;;;;;;4.40;2.00;;;;;;;28.40;25.34;99496.47;5057044;28;20028;-80
2022/10/13 09:19:19;;;;;;;4.20;1.75;;;;;;;28.02;24.63;99495.41;5055559;28;20302;-77
2022/10/13 09:21:46;;;;;;;8.13;1.65;;;;;;;28.09;24.94;99498.88;5056681;28;20020;-81
2022/10/13 09:24:15;;;;;;;7.07;1.85;;;;;;;28.30;24.45;99494.25;5071830;28;20115;-78
2022/10/13 09:26:42;;;;;;;9.85;1.40;;;;;;;28.56;24.13;99493.28;5055635;28;20504;-82
2022/10/13 09:29:47;;;;;;;8.55;1.70;;;;;;;28.48;24.35;99498.88;5072778;28;20121;-77
2022/10/13 09:32:19;;;;;;;5.82;1.75;;;;;;;28.61;24.79;99498.03;5071014;28;20041;-78
2022/10/13 09:34:44;;;;;;;3.97;1.50;;;;;;;28.81;24.23;99484.44;5055242;28;20054;-78
2022/10/13 09:37:21;;;;;;;7.45;1.70;;;;;;;28.71;24.78;99495.69;5056309;28;20059;-87
2022/10/13 09:39:50;;;;;;;5.28;1.55;;;;;;;28.80;24.26;99491.69;5070882;28;20029;-89
2022/10/13 09:42:19;;;;;;;13.45;2.22;;;;;;;28.58;24.73;99488.53;5048765;28;20048;-77
2022/10/13 09:44:45;;;;;;;14.73;1.83;;;;;;;28.85;26.54;99494.53;5020344;28;20043;-75
2022/10/13 09:47:17;;;;;;;6.07;1.75;;;;;;;29.18;26.79;99501.53;5036598;28;20033;-76
2022/10/13 09:49:42;;;;;;;7.63;1.80;;;;;;;29.45;31.61;99492.44;5036396;28;20123;-73
2022/10/13 09:52:11;;;;;;;5.65;1.75;;;;;;;29.66;28.46;99486.59;5015014;28;20132;-74
2022/10/13 09:54:39;;;;;;;9.57;2.30;;;;;;;29.82;30.14;99487.91;5048443;28;20080;-75
2022/10/13 09:57:08;;;;;;;15.68;3.70;;;;;;;30.03;30.92;99477.72;5062344;28;20036;-76
2022/10/13 09:59:38;;;;;;;16.65;3.78;;;;;;;30.21;28.68;99476.88;5073346;28;20507;-74
2022/10/13 10:02:33;;;;;;;8.40;2.70;;;;;;;30.37;28.50;99481.59;5021673;28;20032;-76
2022/10/13 10:05:14;;;;;;;9.55;2.17;;;;;;;30.49;26.11;99462.84;5043544;28;20037;-76
2022/10/13 10:07:39;;;;;;;10.57;1.80;;;;;;;30.52;25.36;99461.53;5051806;28;20056;-75
2022/10/13 10:10:10;;;;;;;8.45;2.00;;;;;;;30.61;25.30;99460.97;5033823;28;20059;-79
2022/10/13 10:12:36;;;;;;;12.23;2.05;;;;;;;30.62;23.83;99459.13;5034526;28;20036;-83
2022/10/13 10:15:02;;;;;;;8.82;2.17;;;;;;;30.60;23.69;99445.03;5051850;28;20482;-87
2022/10/13 10:17:39;;;;;;;5.88;1.80;;;;;;;30.61;23.49;99444.81;5051593;28;20063;-85
2022/10/13 10:20:43;;;;;;;8.98;1.60;;;;;;;30.61;22.42;99438.59;5035119;28;20068;-83
2022/10/13 10:23:16;;;;;;;7.30;1.80;;;;;;;30.51;22.27;99431.09;5074921;28;20045;-88
2022/10/13 10:26:06;;;;;;;5.88;1.45;;;;;;;30.65;21.79;99429.03;5074177;28;20093;-84
2022/10/13 10:29:02;;;;;;;8.90;1.60;;;;;;;30.54;21.37;99422.56;5007460;28;20510;-83
2022/10/13 10:31:41;;;;;;;7.57;1.55;;;;;;;30.37;22.08;99408.91;4992664;28;20046;-86
2022/10/13 10:34:23;;;;;;;5.95;1.60;;;;;;;30.40;24.83;99421.13;4989888;28;20185;-83
2022/10/13 10:36:56;;;;;;;6.45;1.77;;;;;;;30.30;24.36;99413.56;4992051;28;20120;-83
2022/10/13 10:39:30;;;;;;;4.97;1.60;;;;;;;30.18;24.49;99410.03;4974514;28;20093;-85
2022/10/13 10:41:59;;;;;;;3.58;1.48;;;;;;;30.02;23.09;99412.28;4988919;28;20092;-79
2022/10/13 10:44:35;;;;;;;9.48;1.77;;;;;;;29.91;22.62;99410.38;4989498;28;20069;-74
2022/10/13 10:47:04;;;;;;;6.78;1.80;;;;;;;29.75;23.30;99399.16;4989520;28;20104;-81
2022/10/13 10:49:32;;;;;;;5.38;1.55;;;;;;;29.75;25.47;99407.22;4990759;28;20065;-85
2022/10/13 10:51:58;;;;;;;8.07;1.90;;;;;;;29.73;26.70;99403.97;4983566;28;20474;-85
2022/10/13 10:54:30;;;;;;;2.95;1.58;;;;;;;29.61;26.60;99391.50;4958518;28;20537;-82
2022/10/13 10:57:16;;;;;;;6.40;1.80;;;;;;;29.58;26.88;99403.50;4943864;28;20038;-87
2022/10/13 10:59:58;;;;;;;37.95;10.95;;;;;;;29.51;27.76;99384.78;4976030;28;20567;-87
2022/10/13 11:03:02;;;;;;;84.68;32.22;;;;;;;29.46;40.42;99381.94;4960623;28;20125;-84
2022/10/13 11:05:56;;;;;;;733.53;510.58;;;;;;;29.34;34.59;99384.53;4936294;29;20047;-81
2022/10/13 11:08:36;;;;;;;193.82;101.53;;;;;;;29.41;28.77;99379.94;4970192;28;20074;-85
2022/10/13 11:11:20;;;;;;;104.30;59.75;;;;;;;29.28;27.89;99385.44;4971388;28;20129;-79
2022/10/13 11:13:53;;;;;;;125.22;66.78;;;;;;;29.16;29.27;99374.59;4971585;28;20479;-80
2022/10/13 11:16:56;;;;;;;126.88;71.18;;;;;;;29.02;31.61;99375.78;4955510;28;20089;-80
2022/10/13 11:19:33;;;;;;;179.80;93.43;;;;;;;28.94;33.52;99378.72;4971252;28;20034;-81
2022/10/13 11:21:58;;;;;;;89.47;49.03;;;;;;;28.84;31.30;99372.00;4955357;28;20038;-70
2022/10/13 11:24:33;;;;;;;191.35;84.40;;;;;;;28.60;36.52;99360.22;4970764;28;20030;-72
2022/10/13 11:27:07;;;;;;;82.28;38.10;;;;;;;28.49;36.88;99352.84;4954997;28;20046;-68
2022/10/13 11:29:45;;;;;;;46.28;23.10;;;;;;;28.34;31.48;99340.59;4970761;28;20502;-81
2022/10/13 11:35:08;;;;;;;20.85;9.52;;;;;;;28.17;30.71;99331.41;4972466;28;20050;-81
2022/10/13 11:37:55;;;;;;;15.40;7.68;;;;;;;28.04;32.26;99329.66;4967838;28;20058;-68
2022/10/13 11:40:30;;;;;;;18.35;7.10;;;;;;;27.97;30.64;99320.81;4966496;28;20023;-72
2022/10/13 11:43:01;;;;;;;14.55;4.82;;;;;;;27.85;29.62;99331.41;5052230;28;20120;-74